Time;durP1;ratioP1;P1;durP2;ratioP2;P2;SDS_P1;SDS_P2;PMS_P1;PMS_P2;Temp;Humidity;BMP_temperature;BMP_pressure;BME280_temperature;BME280_humidity;BME280_pressure;Samples;Min_cycle;Max_cycle;Signal;HPM_P1;HPM_P2
2022/08/27 00:02:07;;;;;;;12.13;4.20;;;;;;;23.13;41.54;99869.38;124641;1099;104304;-76
2022/08/27 00:04:39;;;;;;;16.53;4.83;;;;;;;23.12;42.10;99874.77;124684;1099;104215;-76
2022/08/27 00:07:12;;;;;;;17.55;4.92;;;;;;;23.09;42.04;99862.37;124737;1099;104220;-76
2022/08/27 00:09:46;;;;;;;15.30;4.40;;;;;;;23.11;41.92;99875.70;124662;1098;104207;-76
2022/08/27 00:12:17;;;;;;;18.83;4.67;;;;;;;23.10;42.12;99874.80;124726;1099;104781;-76
2022/08/27 00:14:48;;;;;;;15.53;4.57;;;;;;;23.10;42.28;99889.99;124726;1099;102813;-76
2022/08/27 00:17:19;;;;;;;16.03;4.53;;;;;;;23.11;42.19;99881.06;124634;1099;104325;-76
2022/08/27 00:19:51;;;;;;;15.97;4.40;;;;;;;23.15;42.21;99882.72;124762;1099;104265;-75
2022/08/27 00:22:24;;;;;;;15.30;4.33;;;;;;;23.14;41.68;99889.01;124700;1099;104166;-75
2022/08/27 00:24:54;;;;;;;;;;;;;;;23.07;41.64;99890.91;124740;1099;104242;-76
2022/08/27 00:27:25;;;;;;;18.33;4.80;;;;;;;23.03;42.64;99889.25;124708;1099;104287;-76
2022/08/27 00:29:57;;;;;;;16.27;4.80;;;;;;;23.01;41.75;99890.19;124731;1098;104449;-76
2022/08/27 00:32:28;;;;;;;19.73;4.83;;;;;;;23.06;42.71;99890.94;124727;1099;102797;-77
2022/08/27 00:35:00;;;;;;;17.70;4.57;;;;;;;23.11;42.05;99900.66;124705;1098;102756;-77
2022/08/27 00:37:31;;;;;;;16.23;4.93;;;;;;;23.12;42.09;99896.17;124722;1099;102645;-77
2022/08/27 00:40:03;;;;;;;15.00;4.90;;;;;;;23.11;42.33;99899.79;124711;1099;102768;-77
2022/08/27 00:42:35;;;;;;;17.30;4.80;;;;;;;23.08;42.76;99902.51;124686;1099;102778;-76
2022/08/27 00:45:09;;;;;;;15.57;4.30;;;;;;;23.04;42.23;99890.98;124669;1099;102200;-76
2022/08/27 00:47:44;;;;;;;18.57;4.70;;;;;;;23.00;42.23;99885.75;124674;1099;104235;-77
2022/08/27 00:50:19;;;;;;;18.75;5.30;;;;;;;22.95;42.97;99880.52;124747;1099;104734;-76
2022/08/27 00:52:56;;;;;;;22.57;5.00;;;;;;;22.87;42.23;99877.16;124770;1099;104152;-76
2022/08/27 00:55:32;;;;;;;19.40;4.87;;;;;;;22.83;42.87;99875.47;124670;1099;104197;-75
2022/08/27 00:58:10;;;;;;;17.17;5.20;;;;;;;22.83;42.84;99880.81;124720;1099;104303;-76
2022/08/27 01:00:42;;;;;;;15.73;4.80;;;;;;;22.85;42.92;99889.70;124671;1099;104220;-76
2022/08/27 01:03:14;;;;;;;19.30;4.63;;;;;;;22.88;42.78;99895.84;124677;1098;104331;-77
2022/08/27 01:05:49;;;;;;;18.10;4.87;;;;;;;22.93;43.03;99903.76;124697;1099;102144;-76
2022/08/27 01:08:23;;;;;;;15.73;4.27;;;;;;;22.97;43.03;99897.42;124746;1098;104392;-76
2022/08/27 01:10:57;;;;;;;16.30;4.63;;;;;;;22.97;43.32;99892.08;124684;1099;102822;-76
2022/08/27 01:13:32;;;;;;;16.50;4.57;;;;;;;22.93;43.24;99891.25;124679;1099;104236;-76
2022/08/27 01:16:06;;;;;;;14.50;4.83;;;;;;;22.88;43.33;99889.63;124721;1099;105518;-76
2022/08/27 01:18:38;;;;;;;18.27;4.40;;;;;;;22.84;43.36;99890.61;124676;1099;104259;-76
2022/08/27 01:21:21;;;;;;;14.53;4.23;;;;;;;22.79;43.54;99885.38;124714;1099;104153;-77
2022/08/27 01:23:57;;;;;;;14.63;4.63;;;;;;;22.73;43.74;99882.84;124786;1099;104255;-76
2022/08/27 01:26:30;;;;;;;15.77;4.57;;;;;;;22.67;44.15;99880.31;124709;1099;104267;-77
2022/08/27 01:29:02;;;;;;;17.60;4.53;;;;;;;22.64;44.21;99886.64;124728;1099;104190;-77
2022/08/27 01:31:33;;;;;;;17.23;5.67;;;;;;;22.60;44.17;99883.13;125683;1099;102746;-77
2022/08/27 01:34:06;;;;;;;18.57;5.27;;;;;;;22.52;44.24;99881.58;124724;1099;104192;-76
2022/08/27 01:36:39;;;;;;;20.57;5.30;;;;;;;22.43;44.75;99878.17;124704;1099;104152;-77
2022/08/27 01:39:10;;;;;;;22.37;5.63;;;;;;;22.37;45.40;99877.45;124728;1099;104290;-76
2022/08/27 01:41:44;;;;;;;18.95;5.50;;;;;;;22.32;45.65;99880.22;124780;1099;104066;-77
2022/08/27 01:44:15;;;;;;;17.97;5.33;;;;;;;22.29;46.23;99874.91;124628;1099;104348;-76
2022/08/27 01:46:48;;;;;;;16.27;5.03;;;;;;;22.21;46.27;99872.41;124686;1099;104220;-76
2022/08/27 01:49:19;;;;;;;19.98;5.47;;;;;;;22.15;46.65;99880.56;124719;1098;104210;-76
2022/08/27 01:51:51;;;;;;;21.67;5.60;;;;;;;22.08;46.41;99887.84;124725;1098;104325;-78
2022/08/27 01:54:22;;;;;;;21.90;5.20;;;;;;;22.06;46.63;99883.43;124748;1099;104320;-76
2022/08/27 01:56:53;;;;;;;16.70;5.40;;;;;;;22.02;47.28;99879.09;124741;1099;104195;-76
2022/08/27 01:59:24;;;;;;;16.57;4.80;;;;;;;21.99;46.83;99871.14;124757;1099;104208;-76
2022/08/27 02:01:56;;;;;;;20.27;5.10;;;;;;;21.94;46.98;99878.34;124660;1099;102797;-76
2022/08/27 02:04:27;;;;;;;18.30;5.40;;;;;;;21.87;47.30;99878.47;124720;1099;104236;-76
2022/08/27 02:06:59;;;;;;;19.30;5.10;;;;;;;21.85;48.18;99874.96;124720;1099;104189;-76
2022/08/27 02:09:32;;;;;;;19.90;6.03;;;;;;;21.81;47.07;99881.27;124719;1099;104153;-76
2022/08/27 02:12:04;;;;;;;19.67;5.37;;;;;;;21.81;47.61;99880.39;124686;1099;104463;-76
2022/08/27 02:14:35;;;;;;;16.53;5.53;;;;;;;21.82;47.26;99891.05;124740;1099;102797;-76
2022/08/27 02:17:08;;;;;;;16.93;5.33;;;;;;;21.80;48.74;99890.20;124726;1098;104213;-76
2022/08/27 02:19:39;;;;;;;18.10;5.37;;;;;;;21.73;49.12;99880.55;124851;1099;104325;-75
2022/08/27 02:22:10;;;;;;;16.13;5.33;;;;;;;21.66;48.09;99890.48;124706;1099;103333;-75
2022/08/27 02:24:41;;;;;;;19.50;5.50;;;;;;;21.56;49.35;99888.02;124725;1099;104267;-75
2022/08/27 02:27:14;;;;;;;16.57;5.07;;;;;;;21.48;49.57;99890.80;124808;1099;104159;-76
2022/08/27 02:29:46;;;;;;;24.13;6.03;;;;;;;21.40;50.34;99882.94;124713;1099;102771;-75
2022/08/27 02:32:19;;;;;;;21.00;5.47;;;;;;;21.32;49.38;99888.41;124750;1099;104191;-76
2022/08/27 02:34:50;;;;;;;18.57;5.40;;;;;;;21.28;50.92;99888.49;124725;1099;104169;-76
2022/08/27 02:37:21;;;;;;;19.20;6.00;;;;;;;21.23;50.86;99880.57;124800;1098;104172;-75
2022/08/27 02:39:53;;;;;;;16.95;5.25;;;;;;;21.19;51.53;99890.42;124796;1098;104088;-76
2022/08/27 02:42:24;;;;;;;19.87;5.33;;;;;;;21.19;51.97;99886.86;124667;1099;104233;-76
2022/08/27 02:44:56;;;;;;;;;;;;;;;21.15;50.39;99883.38;124749;1099;102880;-77
2022/08/27 02:47:28;;;;;;;18.33;6.03;;;;;;;21.12;51.58;99877.22;124760;1098;104214;-76
2022/08/27 02:50:03;;;;;;;19.37;5.90;;;;;;;21.09;51.61;99880.81;124645;1099;102534;-76
2022/08/27 02:52:35;;;;;;;21.13;5.63;;;;;;;21.04;51.79;99880.02;124747;1099;102842;-77
2022/08/27 02:55:08;;;;;;;18.27;5.57;;;;;;;21.01;52.26;99872.07;124694;1099;104163;-76
2022/08/27 02:57:40;;;;;;;22.80;6.20;;;;;;;20.92;51.66;99875.77;124785;1099;104322;-76
2022/08/27 03:00:15;;;;;;;28.60;6.93;;;;;;;20.89;52.45;99878.48;124689;1099;104153;-77
2022/08/27 03:02:47;;;;;;;19.70;5.87;;;;;;;20.86;52.72;99867.86;124715;1099;104225;-76
2022/08/27 03:05:20;;;;;;;21.40;5.90;;;;;;;20.83;52.84;99866.16;124784;1099;102855;-77
2022/08/27 03:07:51;;;;;;;17.50;5.97;;;;;;;20.79;52.48;99880.42;124696;1099;104160;-77
2022/08/27 03:10:23;;;;;;;22.33;5.63;;;;;;;20.78;52.98;99867.98;124713;1099;104820;-76
2022/08/27 03:12:54;;;;;;;20.50;5.50;;;;;;;20.78;52.45;99864.45;124730;1099;101887;-75
2022/08/27 03:15:26;;;;;;;21.27;5.67;;;;;;;20.74;54.16;99866.30;124676;1099;104261;-76
2022/08/27 03:20:48;;;;;;;17.17;5.73;;;;;;;20.68;53.61;99876.16;124729;1099;104236;-76
2022/08/27 03:23:23;;;;;;;20.23;5.92;;;;;;;20.67;53.13;99882.41;124730;1098;102836;-76
2022/08/27 03:25:56;;;;;;;21.60;6.17;;;;;;;20.68;53.50;99876.16;124707;1099;104300;-75
2022/08/27 03:28:32;;;;;;;19.73;6.03;;;;;;;20.69;54.20;99872.59;124723;1099;104157;-76
2022/08/27 03:31:07;;;;;;;25.65;6.10;;;;;;;20.68;53.20;99876.16;124771;1099;104239;-76
2022/08/27 03:33:40;;;;;;;25.83;6.23;;;;;;;20.69;53.21;99880.59;124817;1099;104195;-76
2022/08/27 03:36:11;;;;;;;23.75;5.50;;;;;;;20.68;53.42;99879.72;124709;1099;104181;-76
2022/08/27 03:38:42;;;;;;;20.67;5.83;;;;;;;20.71;53.57;99879.67;124715;1099;104319;-76
2022/08/27 03:41:14;;;;;;;24.30;6.10;;;;;;;20.74;53.65;99890.30;124729;1099;104393;-76
2022/08/27 03:43:46;;;;;;;23.13;6.80;;;;;;;20.76;53.45;99880.47;124705;1099;104152;-77
2022/08/27 03:46:19;;;;;;;16.75;5.60;;;;;;;20.79;54.06;99885.76;124725;1099;104166;-75
2022/08/27 03:48:50;;;;;;;16.75;6.33;;;;;;;20.79;53.96;99888.42;124789;1099;103569;-76
2022/08/27 03:51:21;;;;;;;21.87;6.93;;;;;;;20.80;54.14;99892.86;124722;1099;104174;-76
2022/08/27 03:53:53;;;;;;;17.60;5.17;;;;;;;20.81;55.30;99899.06;124749;1099;104159;-77
2022/08/27 03:56:24;;;;;;;25.53;6.27;;;;;;;20.83;55.09;99900.81;124781;1098;102705;-76
2022/08/27 03:58:55;;;;;;;22.77;6.10;;;;;;;20.83;55.36;99897.24;124729;1097;104223;-76
2022/08/27 04:01:27;;;;;;;24.17;5.73;;;;;;;20.81;55.17;99894.60;124724;1098;104226;-77
2022/08/27 04:03:58;;;;;;;24.13;5.87;;;;;;;20.82;55.30;99904.38;124752;1098;104185;-76
2022/08/27 04:06:30;;;;;;;19.87;6.17;;;;;;;20.87;55.04;99906.09;124705;1099;104156;-75
2022/08/27 04:09:01;;;;;;;21.17;6.03;;;;;;;20.93;54.55;99903.33;124693;1099;104093;-77
2022/08/27 04:11:34;;;;;;;22.13;6.40;;;;;;;21.00;54.88;99904.97;124746;1099;104194;-76
2022/08/27 04:14:07;;;;;;;19.07;5.40;;;;;;;21.07;54.60;99903.11;124737;1099;104294;-76
2022/08/27 04:16:40;;;;;;;18.93;5.60;;;;;;;21.13;55.07;99901.20;124758;1099;104233;-76
2022/08/27 04:19:11;;;;;;;;;;;;;;;21.15;54.50;99894.05;124742;1098;104192;-76
2022/08/27 04:21:42;;;;;;;22.10;6.25;;;;;;;21.23;54.20;99898.38;124662;1099;104248;-76
2022/08/27 04:24:17;;;;;;;22.37;6.23;;;;;;;21.27;54.80;99897.39;124676;1099;104159;-76
2022/08/27 04:26:48;;;;;;;16.03;5.87;;;;;;;21.29;54.81;99893.80;124713;1099;104216;-76
2022/08/27 04:29:19;;;;;;;23.70;5.67;;;;;;;21.34;55.24;99893.72;124748;1099;104692;-76
2022/08/27 04:31:50;;;;;;;26.20;6.70;;;;;;;21.38;54.39;99898.11;124725;1099;104367;-76
2022/08/27 04:34:22;;;;;;;17.10;5.80;;;;;;;21.42;53.83;99902.45;124777;1098;104631;-77
2022/08/27 04:36:54;;;;;;;17.17;6.00;;;;;;;21.46;54.52;99897.97;124791;1099;104201;-76
2022/08/27 04:39:26;;;;;;;20.57;5.57;;;;;;;21.52;54.46;99908.56;124772;1098;104246;-76
2022/08/27 04:41:59;;;;;;;19.40;6.27;;;;;;;21.60;54.10;99916.39;124782;1099;102155;-76
2022/08/27 04:44:32;;;;;;;18.97;5.80;;;;;;;21.63;54.47;99903.89;124731;1099;104259;-76
2022/08/27 04:47:03;;;;;;;;;;;;;;;21.64;53.58;99913.64;124806;1099;104120;-76
2022/08/27 04:49:34;;;;;;;16.20;5.27;;;;;;;21.70;54.04;99913.52;124732;1099;104650;-76
2022/08/27 04:52:07;;;;;;;18.13;6.23;;;;;;;21.75;53.90;99905.42;124785;1099;104177;-76
2022/08/27 04:54:39;;;;;;;16.20;5.20;;;;;;;21.81;53.16;99910.64;124842;1099;104239;-76
2022/08/27 04:57:11;;;;;;;24.00;5.87;;;;;;;21.88;53.77;99912.29;124696;1099;104159;-76
2022/08/27 04:59:42;;;;;;;17.27;5.73;;;;;;;21.99;52.46;99908.53;124792;1099;104265;-75
2022/08/27 05:02:16;;;;;;;20.90;5.60;;;;;;;22.06;53.09;99903.03;124634;1099;111851;-76
2022/08/27 05:04:47;;;;;;;15.53;5.10;;;;;;;22.13;52.17;99909.12;124732;1099;104757;-75
2022/08/27 05:07:19;;;;;;;17.90;5.23;;;;;;;22.22;51.55;99905.34;124760;1099;104238;-76
2022/08/27 05:09:51;;;;;;;17.00;5.87;;;;;;;22.30;52.03;99911.45;124727;1099;104317;-76
2022/08/27 05:12:22;;;;;;;19.13;5.83;;;;;;;22.37;51.36;99904.17;124718;1099;102791;-76
2022/08/27 05:14:55;;;;;;;17.20;5.40;;;;;;;22.41;51.87;99900.53;124779;1099;104235;-76
2022/08/27 05:17:30;;;;;;;19.80;5.50;;;;;;;22.47;51.90;99899.49;124758;1099;104239;-76
2022/08/27 05:20:01;;;;;;;16.40;6.07;;;;;;;22.56;51.02;99904.63;124663;1099;104221;-76
2022/08/27 05:22:34;;;;;;;22.57;5.87;;;;;;;22.65;51.54;99914.24;124773;1099;104386;-75
2022/08/27 05:25:05;;;;;;;;;;;;;;;22.70;51.17;99913.20;124755;1099;104239;-75
2022/08/27 05:27:36;;;;;;;21.13;5.10;;;;;;;22.81;50.91;99918.30;124764;1099;104232;-76
2022/08/27 05:30:09;;;;;;;19.13;5.87;;;;;;;22.91;51.12;99918.98;124762;1099;104159;-76
2022/08/27 05:32:41;;;;;;;16.83;5.70;;;;;;;22.98;50.86;99915.21;124937;1098;119714;-76
2022/08/27 05:35:13;;;;;;;21.35;5.95;;;;;;;23.00;50.87;99905.38;124329;1099;104163;-76
2022/08/27 05:37:45;;;;;;;20.27;6.47;;;;;;;23.09;50.20;99909.63;124702;1099;104198;-76
2022/08/27 05:40:18;;;;;;;21.30;5.93;;;;;;;23.12;50.14;99905.10;124335;1099;104390;-76
2022/08/27 05:42:50;;;;;;;15.53;6.03;;;;;;;23.19;50.14;99911.17;124772;1099;104720;-75
2022/08/27 05:45:21;;;;;;;19.33;6.00;;;;;;;23.24;49.92;99909.24;124671;1099;104229;-76
2022/08/27 05:47:53;;;;;;;19.93;6.13;;;;;;;23.25;49.41;99910.11;124737;1099;104434;-76
2022/08/27 05:50:25;;;;;;;21.93;5.70;;;;;;;23.29;48.62;99901.09;124729;1099;104047;-76
2022/08/27 05:52:58;;;;;;;19.80;5.73;;;;;;;23.35;48.93;99900.06;124753;1099;104232;-76
2022/08/27 05:55:30;;;;;;;20.67;6.53;;;;;;;23.37;48.51;99903.56;124697;1099;104254;-76
2022/08/27 05:58:01;;;;;;;22.20;6.33;;;;;;;23.36;49.00;99897.34;124718;1099;103071;-76
2022/08/27 06:03:23;;;;;;;22.90;6.30;;;;;;;23.42;48.81;99888.25;124746;1099;104300;-76
2022/08/27 06:06:01;;;;;;;22.30;6.30;;;;;;;23.44;48.12;99892.66;124721;1099;104245;-76
2022/08/27 06:08:34;;;;;;;18.00;6.10;;;;;;;23.47;47.83;99887.22;124706;1099;104300;-76
2022/08/27 06:11:09;;;;;;;17.45;5.75;;;;;;;23.48;47.57;99890.77;124718;1099;102264;-76
2022/08/27 06:13:41;;;;;;;22.43;5.90;;;;;;;23.50;47.53;99883.59;124894;1099;108251;-76
2022/08/27 06:16:15;;;;;;;15.30;5.80;;;;;;;23.53;47.74;99883.51;124715;1099;104153;-76
2022/08/27 06:18:49;;;;;;;19.83;6.30;;;;;;;23.58;47.67;99886.92;124728;1099;104329;-76
2022/08/27 06:21:19;;;;;;;;;;;;;;;23.59;47.07;99877.98;124842;1099;104204;-76
2022/08/27 06:23:52;;;;;;;18.90;6.27;;;;;;;23.60;47.07;99879.72;124764;1099;104255;-76
2022/08/27 06:26:25;;;;;;;16.80;5.67;;;;;;;23.62;46.76;99883.25;124685;1099;104067;-76
2022/08/27 06:28:57;;;;;;;21.15;6.33;;;;;;;23.69;46.25;99874.11;124723;1099;104233;-76
2022/08/27 06:31:28;;;;;;;22.93;5.97;;;;;;;23.74;45.95;99882.02;124748;1099;104159;-76
2022/08/27 06:34:04;;;;;;;18.03;5.83;;;;;;;23.83;46.09;99875.52;124708;1099;104348;-76
2022/08/27 06:36:38;;;;;;;17.97;5.93;;;;;;;23.93;46.14;99881.52;124740;1099;104248;-77
2022/08/27 06:39:14;;;;;;;14.73;5.50;;;;;;;23.96;45.60;99881.42;124777;1099;102392;-76
2022/08/27 06:41:45;;;;;;;23.80;6.17;;;;;;;23.96;45.00;99879.61;124808;1099;102871;-76
2022/08/27 06:44:16;;;;;;;24.03;6.73;;;;;;;23.98;44.91;99883.15;124779;1099;104275;-76
2022/08/27 06:46:47;;;;;;;19.47;6.57;;;;;;;24.01;44.87;99879.48;124756;1099;104179;-76
2022/08/27 06:49:19;;;;;;;17.83;6.10;;;;;;;24.03;44.78;99881.20;124742;1099;102153;-76
2022/08/27 06:51:53;;;;;;;20.90;6.07;;;;;;;24.02;44.99;99875.89;124702;1099;104217;-77
2022/08/27 06:54:26;;;;;;;18.27;5.67;;;;;;;24.03;44.79;99878.52;125934;1098;104275;-76
2022/08/27 06:56:59;;;;;;;19.97;6.13;;;;;;;24.04;44.93;99871.35;124743;1099;104258;-75
2022/08/27 06:59:32;;;;;;;14.90;5.70;;;;;;;24.08;45.16;99869.48;124777;1099;102752;-77
2022/08/27 07:02:03;;;;;;;19.03;6.67;;;;;;;24.15;45.12;99876.39;124720;1099;102839;-76
2022/08/27 07:04:34;;;;;;;27.07;6.93;;;;;;;24.20;44.99;99872.66;125966;1097;104320;-76
2022/08/27 07:07:06;;;;;;;19.63;7.30;;;;;;;24.27;44.82;99870.66;124751;1099;104169;-76
2022/08/27 07:09:38;;;;;;;23.53;7.53;;;;;;;24.35;45.01;99867.73;124743;1098;104163;-76
2022/08/27 07:12:09;;;;;;;23.83;7.17;;;;;;;24.46;44.87;99870.09;124768;1098;102851;-77
2022/08/27 07:14:43;;;;;;;22.00;6.15;;;;;;;24.58;44.99;99872.41;124773;1099;104268;-76
2022/08/27 07:17:16;;;;;;;22.03;6.43;;;;;;;24.70;44.76;99863.11;124695;1098;104338;-76
2022/08/27 07:19:47;;;;;;;17.63;6.53;;;;;;;24.86;44.76;99856.28;124656;1099;102317;-76
2022/08/27 07:22:18;;;;;;;24.63;6.87;;;;;;;25.05;44.69;99867.27;124707;1099;104256;-76
2022/08/27 07:24:50;;;;;;;17.60;6.10;;;;;;;25.22;44.28;99861.31;124814;1099;102784;-76
2022/08/27 07:27:22;;;;;;;22.03;6.53;;;;;;;25.38;44.47;99864.36;124753;1099;104272;-76
2022/08/27 07:29:53;;;;;;;21.57;6.63;;;;;;;25.58;44.35;99871.70;124678;1099;104070;-76
2022/08/27 07:32:24;;;;;;;20.73;6.20;;;;;;;25.77;43.85;99868.34;124817;1099;101895;-75
2022/08/27 07:34:55;;;;;;;17.67;5.73;;;;;;;25.94;42.91;99855.14;124680;1099;104211;-76
2022/08/27 07:37:27;;;;;;;18.77;5.13;;;;;;;26.08;42.38;99859.16;124298;1102;102600;-76
2022/08/27 07:39:59;;;;;;;15.73;5.13;;;;;;;26.25;41.71;99853.12;124746;1099;104332;-75
2022/08/27 07:45:20;;;;;;;19.23;5.67;;;;;;;26.50;40.53;99861.95;124746;1099;104162;-76
2022/08/27 07:47:51;;;;;;;19.97;5.23;;;;;;;26.63;40.30;99858.77;124712;1099;104238;-75
2022/08/27 07:50:23;;;;;;;14.47;5.43;;;;;;;26.72;40.70;99861.11;124776;1099;104299;-77
2022/08/27 07:52:54;;;;;;;17.60;5.23;;;;;;;26.84;40.00;99865.98;124706;1099;102928;-76
2022/08/27 07:55:25;;;;;;;19.00;5.33;;;;;;;26.98;40.02;99867.23;124702;1099;104395;-76
2022/08/27 07:57:57;;;;;;;16.03;5.40;;;;;;;27.09;39.88;99851.49;124715;1099;102439;-76
2022/08/27 08:00:28;;;;;;;16.13;5.60;;;;;;;27.17;39.47;99860.11;124686;1099;104245;-75
2022/08/27 08:02:59;;;;;;;17.90;5.30;;;;;;;27.28;39.32;99859.64;124764;1099;104235;-75
2022/08/27 08:05:31;;;;;;;16.67;5.37;;;;;;;27.38;38.83;99861.03;124710;1099;104265;-75
2022/08/27 08:08:02;;;;;;;17.73;5.90;;;;;;;27.53;38.65;99855.90;124732;1098;104385;-76
2022/08/27 08:10:35;;;;;;;17.40;5.13;;;;;;;27.65;39.00;99855.34;124753;1099;102788;-76
2022/08/27 08:13:07;;;;;;;17.33;5.23;;;;;;;27.75;38.32;99850.41;124711;1099;104181;-76
2022/08/27 08:15:38;;;;;;;16.20;5.60;;;;;;;27.89;37.80;99853.36;124745;1099;102765;-75
2022/08/27 08:18:10;;;;;;;18.30;5.10;;;;;;;28.00;38.39;99857.39;124712;1099;104242;-75
2022/08/27 08:20:41;;;;;;;13.60;4.90;;;;;;;27.92;37.40;99861.27;124740;1099;101835;-76
2022/08/27 08:23:13;;;;;;;13.87;5.13;;;;;;;27.91;37.58;99856.85;124763;1099;102823;-76
2022/08/27 08:25:44;;;;;;;13.55;5.00;;;;;;;27.97;36.94;99861.09;124729;1099;104289;-76
2022/08/27 08:28:16;;;;;;;16.87;5.00;;;;;;;27.99;36.92;99864.62;124727;1098;104235;-76
2022/08/27 08:30:47;;;;;;;14.57;4.97;;;;;;;27.98;36.11;99852.94;124718;1099;104217;-75
2022/08/27 08:33:19;;;;;;;14.30;5.47;;;;;;;28.03;36.58;99860.81;124680;1099;104332;-75
2022/08/27 08:35:51;;;;;;;15.73;5.77;;;;;;;28.12;36.18;99864.91;124746;1098;104169;-75
2022/08/27 08:38:24;;;;;;;19.80;5.80;;;;;;;28.24;36.71;99858.94;124741;1099;104159;-76
2022/08/27 08:40:56;;;;;;;16.82;5.03;;;;;;;28.35;36.03;99866.52;124709;1099;104306;-76
2022/08/27 08:43:33;;;;;;;17.73;5.77;;;;;;;28.44;35.95;99866.07;124748;1099;104166;-76
2022/08/27 08:46:12;;;;;;;15.30;5.33;;;;;;;28.48;35.57;99872.19;124641;1099;104339;-75
2022/08/27 08:48:49;;;;;;;16.20;6.17;;;;;;;28.56;35.05;99869.11;124653;1099;104289;-76
2022/08/27 08:51:30;;;;;;;13.80;5.93;;;;;;;28.58;35.56;99873.53;124778;1099;102193;-76
2022/08/27 08:54:06;;;;;;;17.10;5.90;;;;;;;28.65;35.26;99863.30;124753;1099;104184;-76
2022/08/27 08:56:47;;;;;;;18.80;6.00;;;;;;;28.66;34.88;99870.45;124761;1098;102755;-76
2022/08/27 08:59:26;;;;;;;14.63;5.80;;;;;;;28.65;34.36;99872.25;124736;1099;104258;-76
2022/08/27 09:01:58;;;;;;;21.20;6.13;;;;;;;28.68;34.95;99873.94;124699;1099;104188;-76
2022/08/27 09:04:30;;;;;;;19.60;5.90;;;;;;;28.73;34.84;99884.52;124741;1099;102888;-75
2022/08/27 09:07:07;;;;;;;23.70;6.27;;;;;;;28.74;34.60;99875.47;124661;1099;102124;-76
2022/08/27 09:09:47;;;;;;;15.93;5.60;;;;;;;28.75;34.71;99880.80;124661;1099;104223;-75
2022/08/27 09:12:23;;;;;;;17.37;5.70;;;;;;;28.75;34.92;99880.80;124720;1099;104248;-76
2022/08/27 09:15:00;;;;;;;17.93;6.13;;;;;;;28.79;34.78;99873.41;124705;1098;104718;-77
2022/08/27 09:17:34;;;;;;;20.43;6.10;;;;;;;28.83;34.52;99872.31;124710;1099;111870;-76
2022/08/27 09:20:06;;;;;;;16.20;5.62;;;;;;;28.88;34.44;99881.05;124705;1099;104233;-76
2022/08/27 09:22:50;;;;;;;16.15;5.92;;;;;;;28.91;34.08;99875.50;124776;1099;104274;-77
2022/08/27 09:25:27;;;;;;;20.70;5.77;;;;;;;28.97;33.96;99869.79;124630;1099;104272;-76
2022/08/27 09:28:01;;;;;;;19.13;5.73;;;;;;;29.01;33.95;99871.36;124731;1098;102820;-76
2022/08/27 09:30:42;;;;;;;17.33;6.20;;;;;;;29.10;33.87;99880.83;124651;1099;104253;-76
2022/08/27 09:33:14;;;;;;;16.17;5.87;;;;;;;29.14;33.75;99877.03;124664;1099;104316;-76
2022/08/27 09:35:47;;;;;;;18.43;5.70;;;;;;;29.22;33.73;99882.07;124697;1099;103681;-76
2022/08/27 09:38:27;;;;;;;19.07;6.00;;;;;;;29.29;33.70;99886.19;124672;1099;104166;-76
2022/08/27 09:41:02;;;;;;;17.80;6.70;;;;;;;29.29;33.69;99888.89;124749;1099;104265;-76
2022/08/27 09:43:35;;;;;;;19.07;6.43;;;;;;;29.38;33.89;99888.41;124766;1099;104255;-76
2022/08/27 09:46:18;;;;;;;;;;;;;;;29.49;33.92;99881.58;124791;1099;102769;-77
2022/08/27 09:48:49;;;;;;;17.03;5.90;;;;;;;29.64;33.67;99888.88;124719;1099;104287;-76
2022/08/27 09:51:24;;;;;;;18.77;6.03;;;;;;;29.66;33.49;99892.36;124691;1098;104185;-77
2022/08/27 09:53:58;;;;;;;16.40;6.07;;;;;;;29.68;33.18;99898.55;124754;1099;104235;-75
2022/08/27 09:56:32;;;;;;;22.87;6.57;;;;;;;29.71;33.34;99892.98;124720;1099;103258;-77
2022/08/27 09:59:06;;;;;;;15.93;6.13;;;;;;;29.76;33.19;99885.52;124773;1099;103402;-76
2022/08/27 10:01:50;;;;;;;16.50;5.83;;;;;;;29.81;33.43;99890.72;124678;1099;102499;-76
2022/08/27 10:04:27;;;;;;;16.80;5.73;;;;;;;29.83;33.44;99886.09;124686;1099;104466;-76
2022/08/27 10:06:58;;;;;;;23.07;6.17;;;;;;;29.82;33.27;99891.58;124709;1099;104261;-76
2022/08/27 10:09:35;;;;;;;19.73;5.83;;;;;;;29.87;33.22;99886.78;124734;1099;103581;-76
2022/08/27 10:12:12;;;;;;;15.20;5.60;;;;;;;29.96;32.83;99893.53;124764;1099;104269;-76
2022/08/27 10:14:48;;;;;;;21.13;5.73;;;;;;;30.02;32.79;99885.08;124717;1099;102810;-76
2022/08/27 10:17:27;;;;;;;16.73;5.73;;;;;;;30.04;32.79;99875.91;124678;1099;104265;-76
2022/08/27 10:20:09;;;;;;;19.37;5.83;;;;;;;30.19;32.84;99876.90;124705;1098;104159;-76
2022/08/27 10:22:49;;;;;;;17.10;5.80;;;;;;;30.30;32.46;99868.19;124696;1099;104223;-77
2022/08/27 10:25:31;;;;;;;20.30;6.03;;;;;;;30.36;32.62;99870.55;124723;1099;104184;-75
2022/08/27 10:28:11;;;;;;;22.07;6.73;;;;;;;30.41;32.41;99871.18;124734;1099;104153;-76
2022/08/27 10:30:53;;;;;;;16.20;6.27;;;;;;;30.49;32.26;99872.59;124696;1099;104162;-77
2022/08/27 10:33:33;;;;;;;15.03;6.10;;;;;;;30.51;32.27;99876.07;124721;1099;104165;-77
2022/08/27 10:36:11;;;;;;;18.23;6.07;;;;;;;30.54;32.27;99875.89;124709;1098;104235;-77
2022/08/27 10:38:50;;;;;;;18.13;6.20;;;;;;;30.55;32.11;99864.12;124761;1099;104740;-77
2022/08/27 10:41:27;;;;;;;19.73;6.73;;;;;;;30.57;32.17;99870.30;124732;1099;103305;-76
2022/08/27 10:44:18;;;;;;;18.63;6.03;;;;;;;30.60;32.16;99870.13;124652;1098;104223;-76
2022/08/27 10:47:10;;;;;;;20.13;6.00;;;;;;;30.63;31.87;99875.36;124794;1099;104156;-77
2022/08/27 10:49:52;;;;;;;18.40;6.10;;;;;;;30.73;31.91;99868.47;124707;1099;110813;-77
2022/08/27 10:52:31;;;;;;;16.10;6.00;;;;;;;30.78;31.63;99863.64;124686;1099;104239;-76
2022/08/27 10:55:09;;;;;;;18.93;5.70;;;;;;;30.75;31.76;99866.53;124725;1099;104230;-76
2022/08/27 10:58:03;;;;;;;19.93;6.03;;;;;;;30.76;31.61;99868.29;124686;1098;104050;-76
2022/08/27 11:00:45;;;;;;;17.47;5.87;;;;;;;30.80;31.55;99868.97;125358;1099;104335;-76
2022/08/27 11:03:23;;;;;;;14.97;6.27;;;;;;;30.84;31.61;99870.55;125431;1099;102778;-76
2022/08/27 11:05:59;;;;;;;16.00;5.80;;;;;;;30.84;31.34;99867.84;124724;1099;104162;-76
2022/08/27 11:08:44;;;;;;;21.37;6.33;;;;;;;30.86;31.57;99871.32;124684;1098;103942;-76
2022/08/27 11:11:25;;;;;;;20.60;5.67;;;;;;;30.96;31.63;99867.12;124697;1098;104272;-76
2022/08/27 11:13:59;;;;;;;20.17;6.10;;;;;;;30.99;31.12;99872.39;124731;1099;104252;-76
2022/08/27 11:16:37;;;;;;;16.27;5.73;;;;;;;30.99;31.46;99866.08;124720;1099;104227;-77
2022/08/27 11:19:16;;;;;;;18.83;5.97;;;;;;;31.01;31.36;99864.17;124706;1099;102161;-74
2022/08/27 11:21:53;;;;;;;21.73;6.10;;;;;;;31.07;31.49;99869.22;124758;1099;104273;-75
2022/08/27 11:24:31;;;;;;;17.13;5.97;;;;;;;31.17;31.49;99864.12;124721;1099;104788;-76
2022/08/27 11:27:07;;;;;;;16.23;5.10;;;;;;;31.27;31.10;99859.00;124733;1099;104271;-76
2022/08/27 11:29:46;;;;;;;18.13;6.10;;;;;;;31.30;31.27;99861.53;124707;1099;104166;-76
2022/08/27 11:32:29;;;;;;;11.70;5.33;;;;;;;31.34;31.01;99857.67;124754;1099;104220;-76
2022/08/27 11:35:04;;;;;;;17.45;5.22;;;;;;;31.35;31.05;99852.16;124635;1099;104259;-76
2022/08/27 11:37:52;;;;;;;17.70;5.25;;;;;;;31.44;31.15;99845.28;124697;1099;104373;-76
2022/08/27 11:40:48;;;;;;;15.67;5.27;;;;;;;31.50;30.89;99844.91;124707;1099;102852;-76
2022/08/27 11:43:22;;;;;;;18.70;5.27;;;;;;;31.55;31.04;99836.52;124689;1099;104195;-75
2022/08/27 11:45:58;;;;;;;14.97;5.07;;;;;;;31.54;31.00;99846.50;124720;1099;104159;-76
2022/08/27 11:48:32;;;;;;;17.67;5.70;;;;;;;31.49;30.58;99851.31;124772;1099;102778;-76
2022/08/27 11:51:06;;;;;;;17.53;6.00;;;;;;;31.37;30.60;99846.65;124698;1099;104274;-75